Time;durP1;ratioP1;P1;durP2;ratioP2;P2;SDS_P1;SDS_P2;PMS_P1;PMS_P2;Temp;Humidity;BMP_temperature;BMP_pressure;BME280_temperature;BME280_humidity;BME280_pressure;Samples;Min_cycle;Max_cycle;Signal;HPM_P1;HPM_P2
2022/07/07 00:02:18;;;;;;;3.47;1.75;;;;;;;28.00;42.40;102135.22;5054929;28;20040;-71
2022/07/07 00:04:44;;;;;;;7.95;1.60;;;;;;;28.30;41.35;102142.28;5042970;28;20052;-71
2022/07/07 00:07:09;;;;;;;6.05;1.83;;;;;;;28.15;41.49;102133.38;5054496;28;20058;-70
2022/07/07 00:09:35;;;;;;;6.25;2.08;;;;;;;27.34;43.26;102132.06;5055838;28;20128;-70
2022/07/07 00:12:00;;;;;;;4.53;1.65;;;;;;;27.58;42.38;102125.22;5074142;28;20491;-70
2022/07/07 00:14:26;;;;;;;5.40;1.40;;;;;;;28.72;40.55;102121.63;5071875;28;20036;-70
2022/07/07 00:16:52;;;;;;;6.00;1.67;;;;;;;29.41;38.74;102116.91;5049002;28;20024;-70
2022/07/07 00:19:17;;;;;;;2.50;1.35;;;;;;;28.34;40.84;102122.31;5073484;28;20456;-70
2022/07/07 00:21:43;;;;;;;4.03;1.42;;;;;;;27.77;41.72;102124.09;5055350;28;20035;-70
2022/07/07 00:24:08;;;;;;;4.57;1.40;;;;;;;28.80;39.74;102108.53;5056157;28;20029;-71
2022/07/07 00:26:34;;;;;;;3.28;1.50;;;;;;;27.70;41.94;102115.56;5060399;28;20064;-71
2022/07/07 00:28:59;;;;;;;2.80;1.38;;;;;;;28.09;41.09;102114.00;5051810;28;20495;-71
2022/07/07 00:31:25;;;;;;;5.97;1.52;;;;;;;28.09;40.10;102108.63;5035705;28;20633;-70
2022/07/07 00:33:51;;;;;;;3.20;1.60;;;;;;;27.52;41.67;102104.16;5035945;28;20036;-71
2022/07/07 00:36:16;;;;;;;3.20;1.40;;;;;;;27.81;40.85;102093.41;5046604;28;20032;-71
2022/07/07 00:38:41;;;;;;;6.10;1.48;;;;;;;26.71;42.08;102096.47;5051339;28;20392;-70
2022/07/07 00:41:07;;;;;;;4.35;1.25;;;;;;;28.18;39.47;102093.75;5037296;28;20164;-71
2022/07/07 00:43:37;;;;;;;3.22;1.25;;;;;;;28.65;38.11;102082.69;5054623;28;20138;-71
2022/07/07 00:46:03;;;;;;;3.72;1.10;;;;;;;27.27;40.04;102077.91;5053300;28;20021;-70
2022/07/07 00:48:28;;;;;;;2.03;1.33;;;;;;;27.64;39.84;102085.53;5053463;28;20033;-70
2022/07/07 00:50:54;;;;;;;3.08;1.40;;;;;;;26.74;41.25;102080.22;5034070;28;20029;-71
2022/07/07 00:53:19;;;;;;;3.92;1.30;;;;;;;27.36;39.79;102087.25;5034366;28;20562;-71
2022/07/07 00:55:45;;;;;;;3.70;1.35;;;;;;;27.47;40.09;102084.78;5052715;28;20039;-71
2022/07/07 00:58:10;;;;;;;6.28;1.35;;;;;;;27.35;40.22;102085.50;5062314;28;20040;-71
2022/07/07 01:00:36;;;;;;;1.42;0.95;;;;;;;27.69;39.37;102088.81;5048584;28;20025;-70
2022/07/07 01:03:02;;;;;;;3.75;1.40;;;;;;;26.62;41.57;102091.63;5034551;28;20025;-71
2022/07/07 01:05:29;;;;;;;1.42;1.20;;;;;;;26.27;42.14;102091.81;5041721;28;20435;-71
2022/07/07 01:07:55;;;;;;;2.63;1.20;;;;;;;26.55;42.31;102086.59;5073100;28;20032;-71
2022/07/07 01:10:20;;;;;;;4.85;1.67;;;;;;;27.29;40.27;102091.25;5068748;28;20374;-70
2022/07/07 01:12:46;;;;;;;2.92;1.63;;;;;;;26.92;41.18;102100.56;5049433;28;20028;-71
2022/07/07 01:15:13;;;;;;;1.48;1.38;;;;;;;26.27;42.76;102107.91;5070712;28;20054;-70
2022/07/07 01:17:39;;;;;;;3.65;1.65;;;;;;;26.75;42.09;102103.41;5034132;28;20083;-70
2022/07/07 01:20:07;;;;;;;5.60;1.58;;;;;;;26.20;43.36;102105.56;5052699;28;20035;-71
2022/07/07 01:22:37;;;;;;;6.50;1.95;;;;;;;26.10;44.14;102106.19;5032946;28;20033;-70
2022/07/07 01:25:04;;;;;;;3.63;1.40;;;;;;;25.29;46.66;102098.84;5034001;28;20024;-70
2022/07/07 01:27:30;;;;;;;2.53;1.60;;;;;;;26.18;47.24;102091.38;5035009;28;20055;-70
2022/07/07 01:29:57;;;;;;;3.33;1.50;;;;;;;27.24;43.95;102084.34;5052061;28;20029;-71
2022/07/07 01:32:23;;;;;;;4.18;1.70;;;;;;;25.35;48.54;102088.72;5052619;28;20526;-70
2022/07/07 01:34:49;;;;;;;7.45;1.77;;;;;;;26.32;46.54;102095.09;5034080;28;20035;-71
2022/07/07 01:37:16;;;;;;;3.90;1.35;;;;;;;25.83;45.85;102088.84;5064028;28;20077;-70
2022/07/07 01:39:42;;;;;;;11.55;2.10;;;;;;;25.47;48.09;102092.56;5034396;28;20061;-71
2022/07/07 01:42:08;;;;;;;4.07;1.20;;;;;;;26.03;46.37;102086.91;5051647;28;20060;-70
2022/07/07 01:44:35;;;;;;;3.70;1.35;;;;;;;25.11;48.98;102090.84;5037827;28;20028;-73
2022/07/07 01:47:01;;;;;;;3.85;1.65;;;;;;;25.43;49.84;102085.66;5065772;28;20032;-70
2022/07/07 01:49:29;;;;;;;2.00;1.30;;;;;;;24.81;50.19;102083.47;5072267;28;20078;-71
2022/07/07 01:51:54;;;;;;;3.30;1.50;;;;;;;26.13;46.63;102076.53;5046714;28;20470;-72
2022/07/07 01:54:20;;;;;;;2.90;1.50;;;;;;;26.19;47.55;102068.16;5032906;28;20031;-71
2022/07/07 01:56:45;;;;;;;3.10;1.55;;;;;;;25.21;48.55;102081.41;5052096;28;20041;-71
2022/07/07 01:59:11;;;;;;;3.25;1.90;;;;;;;25.52;49.23;102085.13;5056838;28;20094;-71
2022/07/07 02:01:36;;;;;;;1.73;1.50;;;;;;;25.63;49.10;102086.38;5070746;28;20050;-71
2022/07/07 02:04:02;;;;;;;2.17;1.80;;;;;;;25.01;50.56;102081.56;5042748;28;20032;-70
2022/07/07 02:06:27;;;;;;;2.78;1.65;;;;;;;25.74;48.62;102067.91;5033341;28;20142;-71
2022/07/07 02:08:53;;;;;;;3.47;2.00;;;;;;;24.92;51.70;102082.03;5034231;28;20064;-71
2022/07/07 02:11:18;;;;;;;4.47;1.90;;;;;;;24.48;52.33;102092.19;5051464;28;20028;-70
2022/07/07 02:13:49;;;;;;;3.65;1.70;;;;;;;24.35;56.12;102091.91;5045845;28;20493;-71
2022/07/07 02:16:17;;;;;;;4.13;1.70;;;;;;;24.42;56.42;102081.78;5051315;28;20095;-71
2022/07/07 02:18:44;;;;;;;3.70;1.70;;;;;;;24.94;54.22;102073.00;5033456;28;20031;-71
2022/07/07 02:21:12;;;;;;;5.07;1.95;;;;;;;25.55;50.36;102068.06;5034391;28;20033;-71
2022/07/07 02:23:38;;;;;;;6.18;1.70;;;;;;;24.96;55.74;102075.59;5071496;28;20090;-70
2022/07/07 02:26:04;;;;;;;2.97;1.90;;;;;;;24.77;56.57;102065.84;5038384;28;20105;-70
2022/07/07 02:28:29;;;;;;;2.22;1.90;;;;;;;25.19;55.60;102067.22;5039124;28;20032;-71
2022/07/07 02:30:55;;;;;;;4.70;2.38;;;;;;;26.11;49.90;102065.91;5052346;28;20665;-71
2022/07/07 02:33:22;;;;;;;4.85;2.05;;;;;;;25.89;51.14;102060.84;5052162;28;20036;-71
2022/07/07 02:35:48;;;;;;;3.33;1.95;;;;;;;26.01;50.90;102051.28;5056825;28;20029;-71
2022/07/07 02:38:14;;;;;;;5.88;2.30;;;;;;;25.96;51.77;102059.56;5043323;28;20024;-71
2022/07/07 02:40:39;;;;;;;2.47;1.90;;;;;;;26.12;51.22;102062.28;5039791;28;20037;-71
2022/07/07 02:43:05;;;;;;;4.00;1.92;;;;;;;26.20;50.37;102070.75;5049599;28;20143;-71
2022/07/07 02:45:30;;;;;;;3.00;1.88;;;;;;;24.62;56.95;102062.13;5069983;28;20032;-71
2022/07/07 02:47:55;;;;;;;2.80;1.50;;;;;;;24.48;57.41;102065.47;5074750;28;20119;-71
2022/07/07 02:50:21;;;;;;;3.25;1.65;;;;;;;25.62;53.07;102073.94;5087415;28;20032;-72
2022/07/07 02:52:48;;;;;;;6.78;1.83;;;;;;;26.10;51.13;102058.81;5090050;28;20106;-71
2022/07/07 02:55:13;;;;;;;6.40;2.00;;;;;;;26.02;50.97;102047.66;5091054;28;20032;-71
2022/07/07 02:57:38;;;;;;;8.88;2.03;;;;;;;25.06;54.97;102052.78;5081848;28;20032;-70
2022/07/07 03:00:06;;;;;;;6.03;2.10;;;;;;;25.07;55.19;102051.81;5077552;28;20086;-70
2022/07/07 03:02:32;;;;;;;3.55;2.10;;;;;;;24.92;54.59;102058.81;5070255;28;20025;-70
2022/07/07 03:04:57;;;;;;;4.40;1.70;;;;;;;23.74;65.37;102071.63;5069575;28;20032;-70
2022/07/07 03:07:22;;;;;;;9.43;1.73;;;;;;;23.76;62.21;102077.75;5071049;28;20104;-70
2022/07/07 03:09:48;;;;;;;5.40;2.28;;;;;;;24.89;54.60;102065.22;5068771;28;20119;-70
2022/07/07 03:12:13;;;;;;;7.15;1.27;;;;;;;24.03;58.38;102085.44;5073153;28;20032;-71
2022/07/07 03:14:39;;;;;;;5.13;1.35;;;;;;;25.02;53.68;102077.97;5089464;28;20096;-69
2022/07/07 03:17:04;;;;;;;6.40;2.38;;;;;;;24.11;60.31;102085.94;5089305;28;20391;-70
2022/07/07 03:19:29;;;;;;;7.65;0.88;;;;;;;24.13;58.21;102081.38;5089669;28;20386;-70
2022/07/07 03:21:55;;;;;;;4.95;0.90;;;;;;;24.50;58.54;102074.25;5088484;28;20036;-70
2022/07/07 03:24:20;;;;;;;8.98;1.38;;;;;;;24.33;57.64;102076.88;5078439;28;20469;-71
2022/07/07 03:26:46;;;;;;;9.88;1.40;;;;;;;24.15;58.85;102083.97;5073933;28;20020;-70
2022/07/07 03:29:11;;;;;;;3.25;0.95;;;;;;;23.97;60.92;102085.72;5089759;28;20104;-70
2022/07/07 03:31:36;;;;;;;9.05;2.28;;;;;;;24.61;55.36;102080.91;5088040;28;20484;-71
2022/07/07 03:34:02;;;;;;;5.60;1.27;;;;;;;25.08;54.93;102080.31;5089356;28;20165;-70
2022/07/07 03:36:27;;;;;;;8.50;1.67;;;;;;;24.16;59.39;102086.56;5079335;28;20100;-70
2022/07/07 03:38:53;;;;;;;5.00;1.48;;;;;;;24.17;58.62;102088.31;5083366;28;20103;-70
2022/07/07 03:41:18;;;;;;;9.05;1.40;;;;;;;24.86;54.66;102080.53;5068378;28;20369;-70
2022/07/07 03:43:44;;;;;;;6.70;1.27;;;;;;;25.19;53.96;102080.59;5083978;28;20479;-70
2022/07/07 03:46:09;;;;;;;6.45;1.48;;;;;;;25.86;51.51;102077.97;5070349;28;20035;-71
2022/07/07 03:48:34;;;;;;;4.63;2.15;;;;;;;25.99;50.33;102082.63;5072398;28;20028;-71
2022/07/07 03:51:00;;;;;;;10.27;2.35;;;;;;;25.18;53.19;102084.25;5072603;28;20059;-71
2022/07/07 03:53:25;;;;;;;6.28;1.73;;;;;;;25.23;51.62;102084.84;5089027;28;20028;-70
2022/07/07 03:55:51;;;;;;;8.30;1.60;;;;;;;24.78;55.49;102088.09;5091169;28;20036;-70
2022/07/07 03:58:16;;;;;;;8.18;2.42;;;;;;;24.02;62.91;102089.03;5092875;28;20028;-71
2022/07/07 04:00:42;;;;;;;7.97;1.75;;;;;;;25.14;55.38;102084.47;5089790;28;20020;-70
2022/07/07 04:03:08;;;;;;;8.57;1.50;;;;;;;25.35;54.43;102083.38;5091695;28;20024;-71
2022/07/07 04:05:35;;;;;;;6.85;1.85;;;;;;;25.52;53.40;102093.16;5072388;28;20048;-71
2022/07/07 04:08:00;;;;;;;7.97;1.52;;;;;;;25.06;54.00;102093.75;5085275;28;20418;-71
2022/07/07 04:10:25;;;;;;;11.68;1.35;;;;;;;24.85;56.25;102100.19;5092904;28;20046;-71
2022/07/07 04:12:51;;;;;;;9.02;1.70;;;;;;;24.88;55.05;102095.56;5079240;28;20031;-70
2022/07/07 04:15:16;;;;;;;5.28;1.08;;;;;;;24.85;55.40;102101.06;5072588;28;20388;-72
2022/07/07 04:17:41;;;;;;;6.05;1.27;;;;;;;24.65;54.92;102095.88;5071687;28;20436;-71
2022/07/07 04:20:08;;;;;;;12.32;1.92;;;;;;;24.43;57.06;102094.22;5072372;28;20041;-71
2022/07/07 04:22:33;;;;;;;6.95;1.50;;;;;;;24.78;54.62;102098.78;5071297;28;20021;-69
2022/07/07 04:24:58;;;;;;;5.13;1.10;;;;;;;24.55;55.30;102108.75;5072210;28;20529;-71
2022/07/07 04:27:24;;;;;;;5.00;1.00;;;;;;;25.33;52.12;102100.44;5070268;28;20028;-70
2022/07/07 04:29:49;;;;;;;6.28;1.02;;;;;;;24.30;56.66;102109.09;5072049;28;20051;-71
2022/07/07 04:32:15;;;;;;;6.80;1.40;;;;;;;24.35;53.84;102117.75;5072022;28;20035;-70
2022/07/07 04:34:40;;;;;;;8.02;1.05;;;;;;;24.24;54.59;102122.75;5071036;28;20028;-71
2022/07/07 04:37:06;;;;;;;5.20;0.95;;;;;;;23.61;56.32;102121.16;5076553;28;20547;-71
2022/07/07 04:39:31;;;;;;;6.95;1.00;;;;;;;23.74;55.45;102125.00;5092286;28;20020;-71
2022/07/07 04:41:56;;;;;;;10.18;1.40;;;;;;;24.44;52.54;102138.69;5086501;28;20051;-71
2022/07/07 04:44:22;;;;;;;6.68;1.38;;;;;;;23.41;52.71;102130.91;5071706;28;20047;-70
2022/07/07 04:46:47;;;;;;;7.47;1.35;;;;;;;24.02;52.20;102142.44;5072768;28;20495;-73
2022/07/07 04:49:13;;;;;;;8.30;1.00;;;;;;;23.95;52.09;102151.69;5077559;28;20107;-71
2022/07/07 04:51:39;;;;;;;7.72;0.90;;;;;;;23.91;50.63;102150.09;5091602;28;20103;-70
2022/07/07 04:54:04;;;;;;;7.90;1.58;;;;;;;24.36;49.36;102159.56;5090912;28;20016;-71
2022/07/07 04:56:30;;;;;;;11.50;1.55;;;;;;;25.15;47.42;102156.59;5090640;28;20035;-71
2022/07/07 04:58:55;;;;;;;7.97;1.40;;;;;;;24.77;47.28;102164.75;5092350;28;20034;-71
2022/07/07 05:01:21;;;;;;;8.43;1.48;;;;;;;24.25;47.91;102168.09;5072666;28;20017;-71
2022/07/07 05:03:46;;;;;;;13.68;2.10;;;;;;;23.98;48.62;102173.75;5074079;28;20565;-71
2022/07/07 05:06:12;;;;;;;6.55;1.25;;;;;;;24.49;47.58;102176.72;5091784;28;20013;-71
2022/07/07 05:08:39;;;;;;;9.27;1.27;;;;;;;23.59;48.97;102165.69;5082456;28;20461;-71
2022/07/07 05:11:04;;;;;;;12.00;1.60;;;;;;;23.83;48.93;102171.75;5071286;28;20020;-70
2022/07/07 05:13:30;;;;;;;9.48;1.77;;;;;;;24.89;46.78;102177.53;5078480;28;20111;-71
2022/07/07 05:15:55;;;;;;;12.93;2.03;;;;;;;24.76;46.48;102171.03;5071085;28;20033;-71
2022/07/07 05:18:21;;;;;;;7.32;1.13;;;;;;;23.67;48.67;102179.56;5076241;28;20122;-70
2022/07/07 05:20:47;;;;;;;8.15;1.42;;;;;;;24.24;48.27;102179.72;5072783;28;20029;-71
2022/07/07 05:23:12;;;;;;;6.97;1.50;;;;;;;24.33;48.64;102181.06;5069505;28;20024;-71
2022/07/07 05:25:37;;;;;;;9.57;2.58;;;;;;;25.27;46.44;102183.69;5070943;28;20020;-71
2022/07/07 05:28:03;;;;;;;14.50;1.35;;;;;;;24.79;45.64;102191.41;5071819;28;20028;-71
2022/07/07 05:30:28;;;;;;;7.85;1.27;;;;;;;24.12;48.66;102189.16;5070360;28;20021;-71
2022/07/07 05:32:54;;;;;;;5.88;1.15;;;;;;;24.06;47.56;102197.44;5071554;28;20032;-71
2022/07/07 05:35:20;;;;;;;8.07;1.65;;;;;;;23.59;50.54;102197.72;5070000;28;20032;-71
2022/07/07 05:37:46;;;;;;;10.85;1.65;;;;;;;24.29;48.92;102203.53;5069897;28;20032;-71
2022/07/07 05:40:12;;;;;;;7.40;1.40;;;;;;;24.81;47.06;102206.44;5087896;28;20401;-71
2022/07/07 05:42:38;;;;;;;7.18;1.40;;;;;;;24.78;47.19;102217.25;5089340;28;20079;-71
2022/07/07 05:45:03;;;;;;;6.93;1.85;;;;;;;23.91;48.53;102214.16;5088995;28;20480;-71
2022/07/07 05:47:29;;;;;;;12.57;1.85;;;;;;;22.93;51.78;102226.22;5072505;28;20484;-71
2022/07/07 05:49:54;;;;;;;10.10;1.40;;;;;;;24.14;48.25;102221.13;5073605;28;20036;-71
2022/07/07 05:52:20;;;;;;;7.82;1.25;;;;;;;24.31;47.41;102223.03;5069291;28;20035;-70
2022/07/07 05:54:45;;;;;;;11.32;1.67;;;;;;;24.52;48.11;102231.84;5071717;28;20513;-73
2022/07/07 05:57:10;;;;;;;5.57;1.10;;;;;;;24.11;48.67;102230.16;5085878;28;20028;-72
2022/07/07 05:59:36;;;;;;;7.93;1.58;;;;;;;24.24;47.40;102232.28;5084662;28;20012;-73
2022/07/07 06:02:01;;;;;;;11.55;1.25;;;;;;;24.39;47.46;102226.22;5073257;28;20020;-71
2022/07/07 06:04:26;;;;;;;6.82;1.25;;;;;;;26.15;44.44;102233.56;5071260;28;20470;-71
2022/07/07 06:06:52;;;;;;;4.80;0.90;;;;;;;24.68;46.31;102232.03;5077791;28;20020;-71
2022/07/07 06:09:18;;;;;;;14.07;1.52;;;;;;;25.15;43.78;102236.00;5070334;28;20028;-70
2022/07/07 06:11:44;;;;;;;6.28;1.10;;;;;;;25.32;44.46;102253.88;5070008;28;20025;-71
2022/07/07 06:14:10;;;;;;;8.93;1.00;;;;;;;24.01;49.46;102258.22;5069894;28;20480;-70
2022/07/07 06:16:38;;;;;;;4.88;1.30;;;;;;;24.16;51.13;102246.81;5070506;28;20024;-71
2022/07/07 06:19:12;;;;;;;8.88;1.30;;;;;;;25.11;47.26;102256.66;5084405;28;20027;-71
2022/07/07 06:21:39;;;;;;;7.40;1.80;;;;;;;24.14;49.89;102259.41;5079677;28;20357;-71
2022/07/07 06:24:05;;;;;;;6.18;1.00;;;;;;;23.93;51.28;102271.03;5070807;28;20609;-71
2022/07/07 06:26:31;;;;;;;5.90;0.88;;;;;;;24.08;53.31;102270.34;5070170;28;20103;-71
2022/07/07 06:28:56;;;;;;;2.53;1.13;;;;;;;23.19;55.55;102273.19;5070965;28;20054;-70
2022/07/07 06:31:21;;;;;;;4.88;0.77;;;;;;;22.88;56.83;102276.16;5070594;28;20024;-71
2022/07/07 06:33:47;;;;;;;4.78;0.80;;;;;;;23.99;53.54;102271.63;5072300;28;20089;-71
2022/07/07 06:36:12;;;;;;;3.75;0.80;;;;;;;24.13;51.82;102279.03;5085955;28;20035;-70
2022/07/07 06:38:37;;;;;;;3.42;0.77;;;;;;;25.00;48.14;102278.59;5079734;28;20025;-70
2022/07/07 06:41:03;;;;;;;10.63;2.67;;;;;;;24.64;49.28;102275.88;5075939;28;20032;-70
2022/07/07 06:43:28;;;;;;;4.55;1.25;;;;;;;25.26;47.13;102275.59;5065370;28;20048;-71
2022/07/07 06:45:54;;;;;;;4.55;1.30;;;;;;;25.03;48.05;102280.25;5035093;28;20022;-71
2022/07/07 06:48:20;;;;;;;9.40;1.13;;;;;;;23.21;52.68;102289.13;5032355;28;20028;-70
2022/07/07 06:50:45;;;;;;;5.28;1.67;;;;;;;23.58;51.83;102286.75;5046687;28;20192;-70
2022/07/07 06:53:11;;;;;;;3.40;1.20;;;;;;;23.48;51.22;102286.22;5051919;28;20021;-71
2022/07/07 06:55:37;;;;;;;9.65;1.30;;;;;;;24.69;48.87;102296.09;5068396;28;20100;-71
2022/07/07 06:58:02;;;;;;;3.58;1.10;;;;;;;25.77;46.08;102292.66;5034514;28;20032;-71
2022/07/07 07:00:28;;;;;;;2.95;1.00;;;;;;;25.88;44.83;102284.97;5050914;28;20029;-71
2022/07/07 07:02:54;;;;;;;8.27;1.42;;;;;;;25.37;44.12;102287.50;5033098;28;20150;-70
2022/07/07 07:05:20;;;;;;;5.50;0.80;;;;;;;25.00;45.30;102296.47;5035430;28;20147;-71
2022/07/07 07:07:46;;;;;;;7.38;1.10;;;;;;;25.35;45.72;102288.56;5055717;28;20036;-71
2022/07/07 07:10:11;;;;;;;6.97;0.90;;;;;;;25.11;45.07;102299.47;5036500;28;20033;-71
2022/07/07 07:12:37;;;;;;;5.20;1.00;;;;;;;24.46;46.19;102302.47;5034740;28;20017;-71
2022/07/07 07:15:03;;;;;;;7.80;1.80;;;;;;;24.22;47.62;102326.69;5045220;28;20095;-71
2022/07/07 07:17:28;;;;;;;4.43;1.05;;;;;;;23.55;51.92;102320.59;5037373;28;20032;-71
2022/07/07 07:19:53;;;;;;;6.47;0.88;;;;;;;22.70;57.98;102325.72;5056449;28;20090;-70
2022/07/07 07:22:19;;;;;;;5.60;1.08;;;;;;;23.20;57.00;102325.59;5036885;28;20074;-71
2022/07/07 07:24:44;;;;;;;3.97;1.23;;;;;;;23.28;56.54;102316.41;5036831;28;20032;-71
2022/07/07 07:27:09;;;;;;;8.55;1.67;;;;;;;24.03;53.77;102331.13;5048000;28;20024;-71
2022/07/07 07:29:35;;;;;;;4.57;0.98;;;;;;;24.64;51.59;102310.63;5053082;28;20032;-70
2022/07/07 07:32:00;;;;;;;14.15;1.70;;;;;;;24.80;49.73;102319.66;5051438;28;20017;-70
2022/07/07 07:34:25;;;;;;;9.05;1.85;;;;;;;25.69;46.94;102332.34;5046643;28;20450;-70
2022/07/07 07:36:51;;;;;;;11.93;1.10;;;;;;;28.04;41.20;102324.84;5036025;28;20418;-71
2022/07/07 07:39:16;;;;;;;6.03;0.95;;;;;;;27.09;41.76;102329.44;5036004;28;20524;-70
2022/07/07 07:41:43;;;;;;;4.90;1.25;;;;;;;26.35;42.63;102330.75;5036836;28;20052;-71
2022/07/07 07:44:09;;;;;;;2.60;0.63;;;;;;;26.23;43.86;102338.50;5063841;28;20045;-71
2022/07/07 07:46:35;;;;;;;5.20;0.93;;;;;;;25.20;45.35;102352.53;5075001;28;20495;-71
2022/07/07 07:49:05;;;;;;;5.22;0.80;;;;;;;25.04;46.82;102359.56;5086915;28;20024;-71
2022/07/07 07:51:31;;;;;;;2.38;0.30;;;;;;;24.12;48.70;102352.06;5081493;28;20032;-70
2022/07/07 07:53:58;;;;;;;2.60;0.50;;;;;;;25.07;46.19;102356.72;5072634;28;20102;-71
2022/07/07 07:56:23;;;;;;;4.13;0.70;;;;;;;25.66;45.13;102351.25;5078266;28;20190;-70
2022/07/07 07:58:49;;;;;;;2.53;0.60;;;;;;;24.56;47.32;102357.25;5086174;28;20032;-71
2022/07/07 08:01:14;;;;;;;5.07;0.80;;;;;;;25.63;44.38;102359.44;5074283;28;20040;-71
2022/07/07 08:03:41;;;;;;;3.15;0.65;;;;;;;27.07;41.06;102342.94;5085356;28;20070;-70
2022/07/07 08:06:06;;;;;;;4.13;0.75;;;;;;;27.17;40.85;102351.31;5089207;28;20027;-71
2022/07/07 08:08:32;;;;;;;5.07;0.70;;;;;;;27.47;40.29;102353.25;5072065;28;20025;-71
2022/07/07 08:10:57;;;;;;;3.70;0.70;;;;;;;26.09;43.64;102367.88;5074560;28;20031;-70
2022/07/07 08:13:23;;;;;;;6.88;1.10;;;;;;;26.02;44.13;102363.75;5091454;28;20035;-71
2022/07/07 08:15:48;;;;;;;5.22;0.70;;;;;;;24.85;47.65;102362.22;5077667;28;20495;-71
2022/07/07 08:18:13;;;;;;;9.43;1.15;;;;;;;25.87;44.83;102363.56;5072444;28;20028;-71
2022/07/07 08:20:39;;;;;;;6.32;1.27;;;;;;;24.92;46.42;102362.81;5071535;28;20069;-71
2022/07/07 08:23:04;;;;;;;6.90;1.00;;;;;;;27.11;42.72;102370.47;5075941;28;20131;-71
2022/07/07 08:25:30;;;;;;;5.15;0.85;;;;;;;26.32;45.18;102358.59;5073755;28;20036;-71
2022/07/07 08:27:55;;;;;;;4.10;0.80;;;;;;;26.01;44.92;102372.72;5074798;28;20024;-71
2022/07/07 08:30:20;;;;;;;8.50;1.23;;;;;;;26.26;45.03;102375.00;5080996;28;20046;-73
2022/07/07 08:32:46;;;;;;;6.78;0.80;;;;;;;26.47;45.13;102383.72;5085516;28;20031;-70
2022/07/07 08:35:13;;;;;;;2.58;0.60;;;;;;;25.75;47.15;102388.28;5080101;28;20033;-71
2022/07/07 08:37:38;;;;;;;3.45;0.63;;;;;;;24.32;49.01;102401.09;5081798;28;20016;-70
2022/07/07 08:40:04;;;;;;;5.40;0.50;;;;;;;24.52;47.56;102398.44;5073427;28;20040;-71
2022/07/07 08:42:29;;;;;;;0.75;0.47;;;;;;;26.17;43.30;102405.84;5081228;28;20054;-71
2022/07/07 08:44:55;;;;;;;2.00;0.38;;;;;;;27.47;41.53;102398.03;5073828;28;20046;-71
2022/07/07 08:47:20;;;;;;;2.92;0.55;;;;;;;26.85;43.05;102388.88;5077872;28;20101;-71
2022/07/07 08:49:45;;;;;;;3.92;0.80;;;;;;;27.97;39.97;102393.31;5075550;28;20020;-70
2022/07/07 08:52:12;;;;;;;8.27;0.88;;;;;;;26.37;42.91;102388.69;5079280;28;20372;-70
2022/07/07 08:54:41;;;;;;;5.40;1.05;;;;;;;25.83;44.57;102398.59;5081225;28;20484;-71
2022/07/07 08:57:07;;;;;;;3.63;1.02;;;;;;;25.44;45.76;102407.66;5072233;28;20368;-71
2022/07/07 08:59:33;;;;;;;7.10;1.00;;;;;;;26.65;43.69;102397.09;5083082;28;20499;-71
2022/07/07 09:02:00;;;;;;;6.95;1.20;;;;;;;26.95;42.01;102420.56;5087348;28;20036;-71
2022/07/07 09:04:27;;;;;;;3.97;1.02;;;;;;;24.08;46.88;102422.56;5084514;28;20037;-71
2022/07/07 09:06:58;;;;;;;4.55;0.90;;;;;;;25.75;44.54;102428.44;5070809;28;20400;-70
2022/07/07 09:09:38;;;;;;;6.03;1.02;;;;;;;24.82;46.79;102427.41;5082043;28;20082;-71
2022/07/07 09:12:05;;;;;;;4.35;1.02;;;;;;;25.19;45.79;102430.19;5084206;28;20028;-71
2022/07/07 09:14:42;;;;;;;6.03;1.08;;;;;;;26.58;43.95;102418.88;5073518;28;20048;-71
2022/07/07 09:17:30;;;;;;;7.72;1.13;;;;;;;24.44;48.33;102447.78;5076687;28;20024;-71
2022/07/07 09:20:05;;;;;;;4.88;0.90;;;;;;;24.47;50.26;102442.28;5073077;28;20055;-73
2022/07/07 09:22:56;;;;;;;1.95;0.50;;;;;;;25.40;48.25;102444.38;5073003;28;20032;-71
2022/07/07 09:25:24;;;;;;;3.15;0.85;;;;;;;24.58;50.38;102452.53;5069735;28;20023;-72
2022/07/07 09:27:53;;;;;;;3.45;0.75;;;;;;;25.69;48.39;102450.16;5072488;28;20158;-71
2022/07/07 09:30:26;;;;;;;7.57;1.08;;;;;;;25.98;47.25;102461.25;5073098;28;20028;-71
2022/07/07 09:32:52;;;;;;;8.93;1.13;;;;;;;24.10;49.31;102463.44;5077175;28;20043;-71
2022/07/07 09:38:16;;;;;;;4.10;0.88;;;;;;;25.12;47.63;102461.72;5072524;28;20468;-70
2022/07/07 09:40:55;;;;;;;;;;;;;;;26.19;44.58;102460.19;5076705;28;20024;-71
2022/07/07 09:43:21;;;;;;;3.42;0.57;;;;;;;24.79;45.68;102459.63;5059951;28;19999;-70
2022/07/07 09:45:48;;;;;;;5.95;1.15;;;;;;;24.47;49.00;102485.06;5032771;28;20428;-70
2022/07/07 09:48:14;;;;;;;8.02;0.85;;;;;;;24.76;48.38;102489.19;5035440;28;21539;-71
2022/07/07 09:50:39;;;;;;;8.48;0.80;;;;;;;24.06;49.55;102496.56;5033647;28;20057;-70
2022/07/07 09:53:07;;;;;;;6.55;1.25;;;;;;;24.38;49.62;102499.69;5035460;28;20129;-71
2022/07/07 09:55:33;;;;;;;5.78;1.83;;;;;;;24.50;50.54;102519.69;5033527;28;20028;-70
2022/07/07 09:57:58;;;;;;;5.45;1.00;;;;;;;24.44;50.71;102518.16;5053185;28;20127;-71
2022/07/07 10:00:24;;;;;;;6.20;1.05;;;;;;;24.97;50.84;102521.25;5036156;28;20083;-70
2022/07/07 10:02:51;;;;;;;4.45;1.02;;;;;;;24.73;52.41;102518.72;5033813;28;20021;-71
2022/07/07 10:05:17;;;;;;;3.00;1.10;;;;;;;24.90;49.50;102529.53;5060011;28;20558;-73
2022/07/07 10:07:46;;;;;;;13.13;1.65;;;;;;;25.20;47.94;102517.56;5057697;28;20017;-71
2022/07/07 10:10:12;;;;;;;5.32;0.90;;;;;;;25.11;48.15;102529.53;5031488;28;20511;-70
2022/07/07 10:12:46;;;;;;;3.60;0.93;;;;;;;26.91;43.66;102530.72;5033654;28;20056;-70
2022/07/07 10:15:12;;;;;;;9.45;0.90;;;;;;;25.83;45.86;102522.66;5033269;28;20441;-71
2022/07/07 10:17:43;;;;;;;8.43;1.33;;;;;;;25.76;44.84;102531.06;5049699;28;20029;-70
2022/07/07 10:20:09;;;;;;;4.40;1.13;;;;;;;25.20;46.32;102534.47;5050698;28;20051;-71
2022/07/07 10:22:36;;;;;;;3.40;0.73;;;;;;;26.07;43.83;102541.19;5035274;28;20500;-71
2022/07/07 10:25:06;;;;;;;1.50;0.60;;;;;;;25.17;45.02;102542.63;5037582;28;20025;-71
2022/07/07 10:27:33;;;;;;;5.65;1.15;;;;;;;26.08;43.09;102537.56;5035714;28;20032;-70
2022/07/07 10:30:00;;;;;;;6.25;1.23;;;;;;;27.30;41.62;102541.19;5056606;28;20028;-71
2022/07/07 10:32:41;;;;;;;6.60;1.45;;;;;;;27.08;41.38;102545.06;5040158;28;20044;-70
2022/07/07 10:35:15;;;;;;;8.35;1.25;;;;;;;27.81;39.93;102550.03;5033928;28;20430;-70
2022/07/07 10:37:44;;;;;;;8.13;1.17;;;;;;;27.55;39.79;102547.00;5052764;28;20024;-70
2022/07/07 10:40:18;;;;;;;8.85;1.20;;;;;;;27.62;40.42;102543.97;5037674;28;20406;-70
2022/07/07 10:43:05;;;;;;;4.90;1.23;;;;;;;25.85;43.19;102568.97;5038168;28;20446;-70
2022/07/07 10:45:31;;;;;;;5.95;1.00;;;;;;;23.90;49.61;102586.22;5067319;28;20020;-71
2022/07/07 10:47:57;;;;;;;3.97;0.82;;;;;;;25.20;46.75;102582.63;5072757;28;20654;-70
2022/07/07 10:50:30;;;;;;;7.28;1.00;;;;;;;25.96;45.36;102581.00;5071053;28;20052;-71
2022/07/07 10:52:57;;;;;;;1.75;1.10;;;;;;;26.55;44.29;102589.75;5068440;28;20031;-71
2022/07/07 10:56:02;;;;;;;4.97;0.70;;;;;;;25.23;45.16;102582.47;5088231;28;20028;-71
2022/07/07 10:58:51;;;;;;;3.67;0.95;;;;;;;27.45;41.24;102580.69;5086584;28;20035;-70
2022/07/07 11:01:17;;;;;;;2.97;0.70;;;;;;;26.23;42.63;102595.75;5073158;28;20344;-70
2022/07/07 11:03:42;;;;;;;3.58;0.57;;;;;;;27.42;40.20;102591.56;5076882;28;20024;-70
2022/07/07 11:06:07;;;;;;;2.75;0.93;;;;;;;25.94;42.88;102605.19;5093153;28;20027;-70
2022/07/07 11:08:37;;;;;;;6.30;0.82;;;;;;;25.54;45.46;102629.31;5093489;28;20031;-71
2022/07/07 11:11:04;;;;;;;1.55;0.60;;;;;;;25.19;46.78;102629.03;5093859;28;20031;-71
2022/07/07 11:13:32;;;;;;;1.48;0.90;;;;;;;24.74;49.11;102627.38;5088846;28;20028;-70
2022/07/07 11:16:10;;;;;;;3.30;0.85;;;;;;;25.38;47.00;102628.28;5074300;28;20029;-71
2022/07/07 11:18:36;;;;;;;5.10;0.65;;;;;;;26.63;43.48;102618.88;5076258;28;20081;-71
2022/07/07 11:21:03;;;;;;;2.92;0.70;;;;;;;27.87;40.84;102624.91;5093207;28;20035;-70
2022/07/07 11:23:55;;;;;;;2.55;1.00;;;;;;;26.58;42.40;102633.38;5088430;28;20024;-70
2022/07/07 11:26:23;;;;;;;1.75;0.90;;;;;;;28.48;39.65;102619.72;5074510;28;20021;-71